sensor_id;sensor_type;location;lat;lon;timestamp;pressure;altitude;pressure_sealevel;temperature;humidity
47753;BME280;2038;51.728;6.674;2023-12-20T00:01:50;77052.63;;;-141.64;95.64
47753;BME280;2038;51.728;6.674;2023-12-20T00:04:17;77052.63;;;-141.64;95.81
47753;BME280;2038;51.728;6.674;2023-12-20T00:06:43;77048.72;;;-141.64;95.86
47753;BME280;2038;51.728;6.674;2023-12-20T00:09:10;77056.53;;;-141.64;95.41
47753;BME280;2038;51.728;6.674;2023-12-20T00:11:36;77062.41;;;-141.64;95.09
47753;BME280;2038;51.728;6.674;2023-12-20T00:14:02;77074.13;;;-141.64;95.86
47753;BME280;2038;51.728;6.674;2023-12-20T00:16:29;77078.03;;;-141.64;95.48
47753;BME280;2038;51.728;6.674;2023-12-20T00:18:55;77081.94;;;-141.64;95.63
47753;BME280;2038;51.728;6.674;2023-12-20T00:21:21;77085.84;;;-141.64;95.55
47753;BME280;2038;51.728;6.674;2023-12-20T00:23:47;77089.75;;;-141.64;95.92
47753;BME280;2038;51.728;6.674;2023-12-20T00:26:14;77091.69;;;-141.64;95.86
47753;BME280;2038;51.728;6.674;2023-12-20T00:28:40;77093.66;;;-141.64;95.98
47753;BME280;2038;51.728;6.674;2023-12-20T00:31:06;77091.69;;;-141.64;96.09
47753;BME280;2038;51.728;6.674;2023-12-20T00:33:33;77099.50;;;-141.64;95.61
47753;BME280;2038;51.728;6.674;2023-12-20T00:35:59;77101.47;;;-141.64;95.72
47753;BME280;2038;51.728;6.674;2023-12-20T00:38:26;77085.84;;;-141.64;95.06
47753;BME280;2038;51.728;6.674;2023-12-20T00:40:52;77085.84;;;-141.64;94.89
47753;BME280;2038;51.728;6.674;2023-12-20T00:43:19;77093.66;;;-141.64;95.03
47753;BME280;2038;51.728;6.674;2023-12-20T00:45:45;77099.50;;;-141.64;94.97
47753;BME280;2038;51.728;6.674;2023-12-20T00:48:11;77093.66;;;-141.64;95.00
47753;BME280;2038;51.728;6.674;2023-12-20T00:50:38;77109.25;;;-141.64;94.59
47753;BME280;2038;51.728;6.674;2023-12-20T00:53:04;77113.19;;;-141.64;94.57
47753;BME280;2038;51.728;6.674;2023-12-20T00:55:31;77115.13;;;-141.64;94.92
47753;BME280;2038;51.728;6.674;2023-12-20T00:57:58;77126.84;;;-141.64;94.50
47753;BME280;2038;51.728;6.674;2023-12-20T01:00:25;77144.41;;;-141.64;94.16
47753;BME280;2038;51.728;6.674;2023-12-20T01:02:51;77144.41;;;-141.64;94.65
47753;BME280;2038;51.728;6.674;2023-12-20T01:05:21;77152.22;;;-141.64;94.66
47753;BME280;2038;51.728;6.674;2023-12-20T01:07:50;77165.91;;;-141.64;95.12
47753;BME280;2038;51.728;6.674;2023-12-20T01:10:16;77169.81;;;-141.64;95.29
47753;BME280;2038;51.728;6.674;2023-12-20T01:12:43;77158.09;;;-141.64;95.27
47753;BME280;2038;51.728;6.674;2023-12-20T01:15:10;77169.81;;;-141.64;95.21
47753;BME280;2038;51.728;6.674;2023-12-20T01:17:36;77162.00;;;-141.64;95.57
47753;BME280;2038;51.728;6.674;2023-12-20T01:20:03;77154.19;;;-141.64;95.54
47753;BME280;2038;51.728;6.674;2023-12-20T01:22:29;77152.22;;;-141.64;95.37
47753;BME280;2038;51.728;6.674;2023-12-20T01:24:56;77154.19;;;-141.64;95.29
47753;BME280;2038;51.728;6.674;2023-12-20T01:27:22;77146.38;;;-141.64;95.64
47753;BME280;2038;51.728;6.674;2023-12-20T01:29:48;77158.09;;;-141.64;95.31
47753;BME280;2038;51.728;6.674;2023-12-20T01:32:15;77173.72;;;-141.64;95.81
47753;BME280;2038;51.728;6.674;2023-12-20T01:34:41;77177.63;;;-141.64;95.39
47753;BME280;2038;51.728;6.674;2023-12-20T01:37:08;77167.84;;;-141.64;95.60
47753;BME280;2038;51.728;6.674;2023-12-20T01:39:34;77173.72;;;-141.64;94.55
47753;BME280;2038;51.728;6.674;2023-12-20T01:42:00;77189.34;;;-141.64;94.71
47753;BME280;2038;51.728;6.674;2023-12-20T01:44:26;77204.97;;;-141.64;95.18
47753;BME280;2038;51.728;6.674;2023-12-20T01:46:53;77197.16;;;-141.64;94.67
47753;BME280;2038;51.728;6.674;2023-12-20T01:49:20;77203.00;;;-141.64;95.15
47753;BME280;2038;51.728;6.674;2023-12-20T01:51:47;77203.00;;;-141.64;95.11
47753;BME280;2038;51.728;6.674;2023-12-20T01:54:14;77208.88;;;-141.64;95.06
47753;BME280;2038;51.728;6.674;2023-12-20T01:56:44;77210.81;;;-141.64;95.19
47753;BME280;2038;51.728;6.674;2023-12-20T01:59:10;77216.66;;;-141.64;95.43
47753;BME280;2038;51.728;6.674;2023-12-20T02:01:37;77220.56;;;-141.64;95.34
47753;BME280;2038;51.728;6.674;2023-12-20T02:04:04;77220.56;;;-141.64;94.89
47753;BME280;2038;51.728;6.674;2023-12-20T02:06:31;77208.88;;;-141.64;95.09
47753;BME280;2038;51.728;6.674;2023-12-20T02:09:00;77216.66;;;-141.64;94.81
47753;BME280;2038;51.728;6.674;2023-12-20T02:11:26;77232.28;;;-141.64;95.43
47753;BME280;2038;51.728;6.674;2023-12-20T02:13:54;77230.34;;;-141.64;95.61
47753;BME280;2038;51.728;6.674;2023-12-20T02:16:22;77214.72;;;-141.64;95.44
47753;BME280;2038;51.728;6.674;2023-12-20T02:18:48;77232.28;;;-141.64;95.55
47753;BME280;2038;51.728;6.674;2023-12-20T02:21:15;77236.19;;;-141.64;95.33
47753;BME280;2038;51.728;6.674;2023-12-20T02:23:41;77242.06;;;-141.64;95.67
47753;BME280;2038;51.728;6.674;2023-12-20T02:26:08;77249.88;;;-141.64;95.67
47753;BME280;2038;51.728;6.674;2023-12-20T02:28:35;77251.81;;;-141.64;95.49
47753;BME280;2038;51.728;6.674;2023-12-20T02:31:01;77253.78;;;-141.64;95.26
47753;BME280;2038;51.728;6.674;2023-12-20T02:33:28;77253.78;;;-141.64;95.23
47753;BME280;2038;51.728;6.674;2023-12-20T02:35:55;77253.78;;;-141.64;95.88
47753;BME280;2038;51.728;6.674;2023-12-20T02:38:21;77251.81;;;-141.64;95.77
47753;BME280;2038;51.728;6.674;2023-12-20T02:40:47;77290.88;;;-141.64;96.07
47753;BME280;2038;51.728;6.674;2023-12-20T02:43:13;77283.06;;;-141.64;96.33
47753;BME280;2038;51.728;6.674;2023-12-20T02:45:40;77273.31;;;-141.64;96.64
47753;BME280;2038;51.728;6.674;2023-12-20T02:48:06;77269.41;;;-141.64;96.25
47753;BME280;2038;51.728;6.674;2023-12-20T02:50:33;77255.72;;;-141.64;96.15
47753;BME280;2038;51.728;6.674;2023-12-20T02:52:59;77277.22;;;-141.64;96.52
47753;BME280;2038;51.728;6.674;2023-12-20T02:55:26;77281.13;;;-141.64;95.94
47753;BME280;2038;51.728;6.674;2023-12-20T02:57:52;77285.03;;;-141.64;96.53
47753;BME280;2038;51.728;6.674;2023-12-20T03:00:18;77283.06;;;-141.64;96.67
47753;BME280;2038;51.728;6.674;2023-12-20T03:02:45;77285.03;;;-141.64;96.33
47753;BME280;2038;51.728;6.674;2023-12-20T03:05:11;77288.94;;;-141.64;96.84
47753;BME280;2038;51.728;6.674;2023-12-20T03:07:40;77263.53;;;-141.64;96.41
47753;BME280;2038;51.728;6.674;2023-12-20T03:10:07;77269.41;;;-141.64;96.47
47753;BME280;2038;51.728;6.674;2023-12-20T03:12:35;77279.16;;;-141.64;96.55
47753;BME280;2038;51.728;6.674;2023-12-20T03:15:01;77271.34;;;-141.64;96.86
47753;BME280;2038;51.728;6.674;2023-12-20T03:17:28;77288.94;;;-141.64;96.25
47753;BME280;2038;51.728;6.674;2023-12-20T03:19:54;77286.97;;;-141.64;96.71
47753;BME280;2038;51.728;6.674;2023-12-20T03:22:20;77285.03;;;-141.64;96.80
47753;BME280;2038;51.728;6.674;2023-12-20T03:24:46;77271.34;;;-141.64;96.78
47753;BME280;2038;51.728;6.674;2023-12-20T03:27:13;77271.34;;;-141.64;96.36
47753;BME280;2038;51.728;6.674;2023-12-20T03:29:39;77269.41;;;-141.64;96.61
47753;BME280;2038;51.728;6.674;2023-12-20T03:32:06;77273.31;;;-141.64;95.95
47753;BME280;2038;51.728;6.674;2023-12-20T03:34:32;77277.22;;;-141.64;96.41
47753;BME280;2038;51.728;6.674;2023-12-20T03:36:58;77273.31;;;-141.64;95.81
47753;BME280;2038;51.728;6.674;2023-12-20T03:39:24;77269.41;;;-141.64;95.83
47753;BME280;2038;51.728;6.674;2023-12-20T03:41:51;77277.22;;;-141.64;95.55
47753;BME280;2038;51.728;6.674;2023-12-20T03:44:17;77273.31;;;-141.64;95.86
47753;BME280;2038;51.728;6.674;2023-12-20T03:46:43;77273.31;;;-141.64;95.98
47753;BME280;2038;51.728;6.674;2023-12-20T03:49:11;77269.41;;;-141.64;96.07
47753;BME280;2038;51.728;6.674;2023-12-20T03:51:37;77263.53;;;-141.64;95.68
47753;BME280;2038;51.728;6.674;2023-12-20T03:54:04;77259.63;;;-141.64;95.95
47753;BME280;2038;51.728;6.674;2023-12-20T03:56:30;77283.06;;;-141.64;95.95
47753;BME280;2038;51.728;6.674;2023-12-20T03:58:56;77265.50;;;-141.64;96.14
47753;BME280;2038;51.728;6.674;2023-12-20T04:01:23;77275.25;;;-141.64;96.61
47753;BME280;2038;51.728;6.674;2023-12-20T04:03:49;77259.63;;;-141.64;96.80
47753;BME280;2038;51.728;6.674;2023-12-20T04:06:19;77257.69;;;-141.64;97.17
47753;BME280;2038;51.728;6.674;2023-12-20T04:08:45;77269.41;;;-141.64;96.70
47753;BME280;2038;51.728;6.674;2023-12-20T04:11:11;77255.72;;;-141.64;96.78
47753;BME280;2038;51.728;6.674;2023-12-20T04:13:38;77259.63;;;-141.64;96.44
47753;BME280;2038;51.728;6.674;2023-12-20T04:16:04;77259.63;;;-141.64;96.50
47753;BME280;2038;51.728;6.674;2023-12-20T04:18:31;77257.69;;;-141.64;96.55
47753;BME280;2038;51.728;6.674;2023-12-20T04:20:57;77271.34;;;-141.64;97.19
47753;BME280;2038;51.728;6.674;2023-12-20T04:23:24;77275.25;;;-141.64;97.14
47753;BME280;2038;51.728;6.674;2023-12-20T04:25:50;77283.06;;;-141.64;97.11
47753;BME280;2038;51.728;6.674;2023-12-20T04:28:17;77277.22;;;-141.64;96.69
47753;BME280;2038;51.728;6.674;2023-12-20T04:30:43;77277.22;;;-141.64;96.85
47753;BME280;2038;51.728;6.674;2023-12-20T04:33:09;77285.03;;;-141.64;96.61
47753;BME280;2038;51.728;6.674;2023-12-20T04:35:36;77285.03;;;-141.64;96.19
47753;BME280;2038;51.728;6.674;2023-12-20T04:38:02;77300.66;;;-141.64;96.09
47753;BME280;2038;51.728;6.674;2023-12-20T04:40:28;77296.75;;;-141.64;96.33
47753;BME280;2038;51.728;6.674;2023-12-20T04:42:55;77285.03;;;-141.64;96.27
47753;BME280;2038;51.728;6.674;2023-12-20T04:45:21;77273.31;;;-141.64;96.35
47753;BME280;2038;51.728;6.674;2023-12-20T04:47:49;77261.59;;;-141.64;96.55
47753;BME280;2038;51.728;6.674;2023-12-20T04:50:15;77257.69;;;-141.64;96.04
47753;BME280;2038;51.728;6.674;2023-12-20T04:52:42;77259.63;;;-141.64;95.69
47753;BME280;2038;51.728;6.674;2023-12-20T04:55:09;77263.53;;;-141.64;95.44
47753;BME280;2038;51.728;6.674;2023-12-20T04:57:36;77255.72;;;-141.64;95.82
47753;BME280;2038;51.728;6.674;2023-12-20T05:00:02;77251.81;;;-141.64;95.87
47753;BME280;2038;51.728;6.674;2023-12-20T05:02:29;77230.34;;;-141.64;95.75
47753;BME280;2038;51.728;6.674;2023-12-20T05:04:55;77234.25;;;-141.64;95.33
47753;BME280;2038;51.728;6.674;2023-12-20T05:07:22;77226.44;;;-141.64;94.33
47753;BME280;2038;51.728;6.674;2023-12-20T05:09:48;77234.25;;;-141.64;94.29
47753;BME280;2038;51.728;6.674;2023-12-20T05:12:14;77265.50;;;-141.64;95.27
47753;BME280;2038;51.728;6.674;2023-12-20T05:14:41;77251.81;;;-141.64;96.08
47753;BME280;2038;51.728;6.674;2023-12-20T05:17:07;77259.63;;;-141.64;96.70
47753;BME280;2038;51.728;6.674;2023-12-20T05:19:34;77247.91;;;-141.64;96.76
47753;BME280;2038;51.728;6.674;2023-12-20T05:22:03;77230.34;;;-141.64;96.28
47753;BME280;2038;51.728;6.674;2023-12-20T05:24:29;77234.25;;;-141.64;96.24
47753;BME280;2038;51.728;6.674;2023-12-20T05:26:55;77238.16;;;-141.64;96.61
47753;BME280;2038;51.728;6.674;2023-12-20T05:29:22;77230.34;;;-141.64;95.91
47753;BME280;2038;51.728;6.674;2023-12-20T05:31:48;77234.25;;;-141.64;96.28
47753;BME280;2038;51.728;6.674;2023-12-20T05:34:14;77220.56;;;-141.64;96.09
47753;BME280;2038;51.728;6.674;2023-12-20T05:36:41;77226.44;;;-141.64;96.49
47753;BME280;2038;51.728;6.674;2023-12-20T05:39:07;77218.63;;;-141.64;96.16
47753;BME280;2038;51.728;6.674;2023-12-20T05:41:33;77216.66;;;-141.64;96.43
47753;BME280;2038;51.728;6.674;2023-12-20T05:44:00;77216.66;;;-141.64;96.70
47753;BME280;2038;51.728;6.674;2023-12-20T05:46:27;77214.72;;;-141.64;96.55
47753;BME280;2038;51.728;6.674;2023-12-20T05:48:53;77206.91;;;-141.64;96.19
47753;BME280;2038;51.728;6.674;2023-12-20T05:51:19;77212.78;;;-141.64;96.33
47753;BME280;2038;51.728;6.674;2023-12-20T05:53:46;77204.97;;;-141.64;96.42
47753;BME280;2038;51.728;6.674;2023-12-20T05:56:12;77197.16;;;-141.64;95.98
47753;BME280;2038;51.728;6.674;2023-12-20T05:58:39;77204.97;;;-141.64;96.30
47753;BME280;2038;51.728;6.674;2023-12-20T06:01:06;77214.72;;;-141.64;96.45
47753;BME280;2038;51.728;6.674;2023-12-20T06:03:34;77212.78;;;-141.64;96.21
47753;BME280;2038;51.728;6.674;2023-12-20T06:06:08;77210.81;;;-141.64;96.34
47753;BME280;2038;51.728;6.674;2023-12-20T06:08:39;77210.81;;;-141.64;96.40
47753;BME280;2038;51.728;6.674;2023-12-20T06:11:06;77212.78;;;-141.64;96.26
47753;BME280;2038;51.728;6.674;2023-12-20T06:13:33;77204.97;;;-141.64;95.99
47753;BME280;2038;51.728;6.674;2023-12-20T06:16:03;77201.06;;;-141.64;95.94
47753;BME280;2038;51.728;6.674;2023-12-20T06:18:31;77208.88;;;-141.64;96.41
47753;BME280;2038;51.728;6.674;2023-12-20T06:20:58;77195.19;;;-141.64;96.27
47753;BME280;2038;51.728;6.674;2023-12-20T06:23:27;77195.19;;;-141.64;95.79
47753;BME280;2038;51.728;6.674;2023-12-20T06:25:54;77193.25;;;-141.64;96.04
47753;BME280;2038;51.728;6.674;2023-12-20T06:28:20;77195.19;;;-141.64;95.99
47753;BME280;2038;51.728;6.674;2023-12-20T06:30:46;77185.44;;;-141.64;96.29
47753;BME280;2038;51.728;6.674;2023-12-20T06:33:15;77183.47;;;-141.64;96.27
47753;BME280;2038;51.728;6.674;2023-12-20T06:35:41;77177.63;;;-141.64;96.01
47753;BME280;2038;51.728;6.674;2023-12-20T06:38:08;77179.56;;;-141.64;95.75
47753;BME280;2038;51.728;6.674;2023-12-20T06:40:35;77175.66;;;-141.64;95.43
47753;BME280;2038;51.728;6.674;2023-12-20T06:43:01;77162.00;;;-141.64;95.63
47753;BME280;2038;51.728;6.674;2023-12-20T06:45:28;77150.28;;;-141.64;95.59
47753;BME280;2038;51.728;6.674;2023-12-20T06:47:54;77154.19;;;-141.64;95.53
47753;BME280;2038;51.728;6.674;2023-12-20T06:50:21;77146.38;;;-141.64;94.99
47753;BME280;2038;51.728;6.674;2023-12-20T06:52:48;77146.38;;;-141.64;94.74
47753;BME280;2038;51.728;6.674;2023-12-20T06:55:14;77154.19;;;-141.64;94.76
47753;BME280;2038;51.728;6.674;2023-12-20T06:57:40;77140.50;;;-141.64;94.58
47753;BME280;2038;51.728;6.674;2023-12-20T07:00:07;77136.59;;;-141.64;94.69
47753;BME280;2038;51.728;6.674;2023-12-20T07:02:34;77128.78;;;-141.64;94.66
47753;BME280;2038;51.728;6.674;2023-12-20T07:05:01;77136.59;;;-141.64;94.68
47753;BME280;2038;51.728;6.674;2023-12-20T07:07:27;77132.69;;;-141.64;94.60
47753;BME280;2038;51.728;6.674;2023-12-20T07:09:53;77126.84;;;-141.64;93.99
47753;BME280;2038;51.728;6.674;2023-12-20T07:12:19;77132.69;;;-141.64;94.18
47753;BME280;2038;51.728;6.674;2023-12-20T07:14:49;77136.59;;;-141.64;93.94
47753;BME280;2038;51.728;6.674;2023-12-20T07:17:15;77130.75;;;-141.64;93.90
47753;BME280;2038;51.728;6.674;2023-12-20T07:19:42;77134.66;;;-141.64;94.18
47753;BME280;2038;51.728;6.674;2023-12-20T07:22:09;77140.50;;;-141.64;94.19
47753;BME280;2038;51.728;6.674;2023-12-20T07:24:35;77138.56;;;-141.64;93.99
47753;BME280;2038;51.728;6.674;2023-12-20T07:27:01;77134.66;;;-141.64;94.03
47753;BME280;2038;51.728;6.674;2023-12-20T07:29:28;77128.78;;;-141.64;93.77
47753;BME280;2038;51.728;6.674;2023-12-20T07:31:54;77130.75;;;-141.64;93.87
47753;BME280;2038;51.728;6.674;2023-12-20T07:34:21;77134.66;;;-141.64;93.86
47753;BME280;2038;51.728;6.674;2023-12-20T07:36:47;77144.41;;;-141.64;94.45
47753;BME280;2038;51.728;6.674;2023-12-20T07:39:14;77136.59;;;-141.64;94.23
47753;BME280;2038;51.728;6.674;2023-12-20T07:41:41;77124.88;;;-141.64;93.91
47753;BME280;2038;51.728;6.674;2023-12-20T07:44:07;77124.88;;;-141.64;93.29
47753;BME280;2038;51.728;6.674;2023-12-20T07:46:33;77124.88;;;-141.64;93.21
47753;BME280;2038;51.728;6.674;2023-12-20T07:49:00;77126.84;;;-141.64;93.53
47753;BME280;2038;51.728;6.674;2023-12-20T07:51:26;77115.13;;;-141.64;93.07
47753;BME280;2038;51.728;6.674;2023-12-20T07:53:53;77128.78;;;-141.64;92.90
47753;BME280;2038;51.728;6.674;2023-12-20T07:56:20;77113.19;;;-141.64;93.13
47753;BME280;2038;51.728;6.674;2023-12-20T07:58:47;77109.25;;;-141.64;93.28
47753;BME280;2038;51.728;6.674;2023-12-20T08:01:15;77117.06;;;-141.64;92.95
47753;BME280;2038;51.728;6.674;2023-12-20T08:03:43;77105.38;;;-141.64;93.16
47753;BME280;2038;51.728;6.674;2023-12-20T08:06:09;77103.41;;;-141.64;92.52
47753;BME280;2038;51.728;6.674;2023-12-20T08:08:35;77111.22;;;-141.64;93.08
47753;BME280;2038;51.728;6.674;2023-12-20T08:11:02;77107.31;;;-141.64;92.87
47753;BME280;2038;51.728;6.674;2023-12-20T08:13:29;77119.03;;;-141.64;92.51
47753;BME280;2038;51.728;6.674;2023-12-20T08:15:55;77119.03;;;-141.64;92.53
47753;BME280;2038;51.728;6.674;2023-12-20T08:18:22;77103.41;;;-141.64;92.59
47753;BME280;2038;51.728;6.674;2023-12-20T08:20:49;77103.41;;;-141.64;92.21
47753;BME280;2038;51.728;6.674;2023-12-20T08:23:16;77078.03;;;-141.64;92.36
47753;BME280;2038;51.728;6.674;2023-12-20T08:25:42;77093.66;;;-141.64;91.88
47753;BME280;2038;51.728;6.674;2023-12-20T08:28:08;77103.41;;;-141.64;91.79
47753;BME280;2038;51.728;6.674;2023-12-20T08:30:35;77099.50;;;-141.64;91.17
47753;BME280;2038;51.728;6.674;2023-12-20T08:33:01;77107.31;;;-141.64;91.37
47753;BME280;2038;51.728;6.674;2023-12-20T08:35:28;77099.50;;;-141.64;91.03
47753;BME280;2038;51.728;6.674;2023-12-20T08:37:54;77101.47;;;-141.64;90.94
47753;BME280;2038;51.728;6.674;2023-12-20T08:40:21;77105.38;;;-141.64;91.29
47753;BME280;2038;51.728;6.674;2023-12-20T08:42:48;77089.75;;;-141.64;90.86
47753;BME280;2038;51.728;6.674;2023-12-20T08:45:14;77087.78;;;-141.64;90.41
47753;BME280;2038;51.728;6.674;2023-12-20T08:47:40;77079.97;;;-141.64;90.78
47753;BME280;2038;51.728;6.674;2023-12-20T08:50:07;77083.88;;;-141.64;90.75
47753;BME280;2038;51.728;6.674;2023-12-20T08:52:34;77087.78;;;-141.64;90.71
47753;BME280;2038;51.728;6.674;2023-12-20T08:55:01;77078.03;;;-141.64;90.27
47753;BME280;2038;51.728;6.674;2023-12-20T08:57:27;77083.88;;;-141.64;90.50
47753;BME280;2038;51.728;6.674;2023-12-20T08:59:54;77070.22;;;-141.64;90.69
47753;BME280;2038;51.728;6.674;2023-12-20T09:02:20;77076.06;;;-141.64;90.43
47753;BME280;2038;51.728;6.674;2023-12-20T09:04:46;77070.22;;;-141.64;90.20
47753;BME280;2038;51.728;6.674;2023-12-20T09:07:26;77064.34;;;-141.64;90.70
47753;BME280;2038;51.728;6.674;2023-12-20T09:09:53;77064.34;;;-141.64;90.52
47753;BME280;2038;51.728;6.674;2023-12-20T09:12:20;77046.78;;;-141.64;90.13
47753;BME280;2038;51.728;6.674;2023-12-20T09:14:47;77054.59;;;-141.64;90.03
47753;BME280;2038;51.728;6.674;2023-12-20T09:17:16;77048.72;;;-141.64;90.32
47753;BME280;2038;51.728;6.674;2023-12-20T09:19:43;77035.06;;;-141.64;90.05
47753;BME280;2038;51.728;6.674;2023-12-20T09:22:10;77033.09;;;-141.64;90.08
47753;BME280;2038;51.728;6.674;2023-12-20T09:24:37;77021.41;;;-141.64;89.61
47753;BME280;2038;51.728;6.674;2023-12-20T09:27:05;77025.28;;;-141.64;89.75
47753;BME280;2038;51.728;6.674;2023-12-20T09:29:32;77019.44;;;-141.64;89.46
47753;BME280;2038;51.728;6.674;2023-12-20T09:31:58;77021.41;;;-141.64;89.30
47753;BME280;2038;51.728;6.674;2023-12-20T09:34:25;77021.41;;;-141.64;88.97
47753;BME280;2038;51.728;6.674;2023-12-20T09:36:55;77029.22;;;-141.64;89.33
47753;BME280;2038;51.728;6.674;2023-12-20T09:39:21;77023.34;;;-141.64;88.99
47753;BME280;2038;51.728;6.674;2023-12-20T09:42:04;77013.59;;;-141.64;89.45
47753;BME280;2038;51.728;6.674;2023-12-20T09:44:32;77017.50;;;-141.64;89.20
47753;BME280;2038;51.728;6.674;2023-12-20T09:47:03;77013.59;;;-141.64;89.44
47753;BME280;2038;51.728;6.674;2023-12-20T09:49:30;77019.44;;;-141.64;89.52
47753;BME280;2038;51.728;6.674;2023-12-20T09:51:58;77029.22;;;-141.64;89.78
47753;BME280;2038;51.728;6.674;2023-12-20T09:54:28;77011.63;;;-141.64;89.26
47753;BME280;2038;51.728;6.674;2023-12-20T09:56:55;77019.44;;;-141.64;89.31
47753;BME280;2038;51.728;6.674;2023-12-20T09:59:21;77007.72;;;-141.64;89.94
47753;BME280;2038;51.728;6.674;2023-12-20T10:01:49;77029.22;;;-141.64;89.28
47753;BME280;2038;51.728;6.674;2023-12-20T10:04:21;77019.44;;;-141.64;89.25
47753;BME280;2038;51.728;6.674;2023-12-20T10:06:47;77017.50;;;-141.64;89.51
47753;BME280;2038;51.728;6.674;2023-12-20T10:09:13;77019.44;;;-141.64;89.30
47753;BME280;2038;51.728;6.674;2023-12-20T10:11:40;77021.41;;;-141.64;89.74
47753;BME280;2038;51.728;6.674;2023-12-20T10:14:07;77027.25;;;-141.64;90.62
47753;BME280;2038;51.728;6.674;2023-12-20T10:16:34;77009.69;;;-141.64;90.83
47753;BME280;2038;51.728;6.674;2023-12-20T10:19:01;77005.78;;;-141.64;90.75
47753;BME280;2038;51.728;6.674;2023-12-20T10:21:27;76997.97;;;-141.64;90.54
47753;BME280;2038;51.728;6.674;2023-12-20T10:23:55;76994.06;;;-141.64;90.78
47753;BME280;2038;51.728;6.674;2023-12-20T10:26:26;76990.16;;;-141.64;90.69
47753;BME280;2038;51.728;6.674;2023-12-20T10:28:59;76988.19;;;-141.64;90.56
47753;BME280;2038;51.728;6.674;2023-12-20T10:31:29;76996.00;;;-141.64;90.43
47753;BME280;2038;51.728;6.674;2023-12-20T10:33:58;76982.34;;;-141.64;90.67
47753;BME280;2038;51.728;6.674;2023-12-20T10:36:26;76984.28;;;-141.64;90.32
47753;BME280;2038;51.728;6.674;2023-12-20T10:38:55;76988.19;;;-141.64;90.96
47753;BME280;2038;51.728;6.674;2023-12-20T10:41:28;76976.47;;;-141.64;90.98
47753;BME280;2038;51.728;6.674;2023-12-20T10:43:59;76982.34;;;-141.64;90.96
47753;BME280;2038;51.728;6.674;2023-12-20T10:46:27;76982.34;;;-141.64;90.39
47753;BME280;2038;51.728;6.674;2023-12-20T10:48:58;76988.19;;;-141.64;90.52
47753;BME280;2038;51.728;6.674;2023-12-20T10:51:27;76976.47;;;-141.64;90.17
47753;BME280;2038;51.728;6.674;2023-12-20T10:53:56;76976.47;;;-141.64;90.82
47753;BME280;2038;51.728;6.674;2023-12-20T10:56:23;76980.38;;;-141.64;90.46
47753;BME280;2038;51.728;6.674;2023-12-20T10:58:50;76980.38;;;-141.64;90.47
47753;BME280;2038;51.728;6.674;2023-12-20T11:01:17;76984.28;;;-141.64;90.86
47753;BME280;2038;51.728;6.674;2023-12-20T11:03:52;76978.44;;;-141.64;90.89
47753;BME280;2038;51.728;6.674;2023-12-20T11:09:29;76992.09;;;-141.64;92.76
47753;BME280;2038;51.728;6.674;2023-12-20T11:12:57;77001.88;;;-141.64;92.98
47753;BME280;2038;51.728;6.674;2023-12-20T11:15:15;76994.06;;;-141.64;93.33
47753;BME280;2038;51.728;6.674;2023-12-20T11:17:45;76982.34;;;-141.64;93.19
47753;BME280;2038;51.728;6.674;2023-12-20T11:20:14;76980.38;;;-141.64;93.51
47753;BME280;2038;51.728;6.674;2023-12-20T11:22:53;76997.97;;;-141.64;94.28
47753;BME280;2038;51.728;6.674;2023-12-20T11:25:20;76992.09;;;-141.64;94.16
47753;BME280;2038;51.728;6.674;2023-12-20T11:28:07;76986.25;;;-141.64;94.26
47753;BME280;2038;51.728;6.674;2023-12-20T11:30:46;76978.44;;;-141.64;93.93
47753;BME280;2038;51.728;6.674;2023-12-20T11:33:15;76976.47;;;-141.64;94.03
47753;BME280;2038;51.728;6.674;2023-12-20T11:35:42;76970.63;;;-141.64;93.91
47753;BME280;2038;51.728;6.674;2023-12-20T11:38:11;76968.66;;;-141.64;93.69
47753;BME280;2038;51.728;6.674;2023-12-20T11:40:39;76966.72;;;-141.64;93.88
47753;BME280;2038;51.728;6.674;2023-12-20T11:43:07;76958.91;;;-141.64;94.14
47753;BME280;2038;51.728;6.674;2023-12-20T11:45:34;76972.56;;;-141.64;93.65
47753;BME280;2038;51.728;6.674;2023-12-20T11:48:02;76951.09;;;-141.64;94.23
47753;BME280;2038;51.728;6.674;2023-12-20T11:50:29;76941.34;;;-141.64;93.90
47753;BME280;2038;51.728;6.674;2023-12-20T11:52:56;76945.25;;;-141.64;94.57
47753;BME280;2038;51.728;6.674;2023-12-20T11:55:23;76935.47;;;-141.64;94.19
47753;BME280;2038;51.728;6.674;2023-12-20T11:57:51;76931.56;;;-141.64;94.82
47753;BME280;2038;51.728;6.674;2023-12-20T12:00:18;76927.66;;;-141.64;94.60
47753;BME280;2038;51.728;6.674;2023-12-20T12:02:56;76921.81;;;-141.64;94.21
47753;BME280;2038;51.728;6.674;2023-12-20T12:05:23;76910.09;;;-141.64;93.79
47753;BME280;2038;51.728;6.674;2023-12-20T12:07:50;76914.00;;;-141.64;94.03
47753;BME280;2038;51.728;6.674;2023-12-20T12:10:16;76915.94;;;-141.64;93.85
47753;BME280;2038;51.728;6.674;2023-12-20T12:12:42;76919.84;;;-141.64;93.82
47753;BME280;2038;51.728;6.674;2023-12-20T12:15:09;76910.09;;;-141.64;93.27
47753;BME280;2038;51.728;6.674;2023-12-20T12:17:36;76906.19;;;-141.64;92.56
47753;BME280;2038;51.728;6.674;2023-12-20T12:20:04;76900.31;;;-141.64;92.22
47753;BME280;2038;51.728;6.674;2023-12-20T12:22:31;76896.41;;;-141.64;92.34
47753;BME280;2038;51.728;6.674;2023-12-20T12:25:08;76898.38;;;-141.64;92.20
47753;BME280;2038;51.728;6.674;2023-12-20T12:27:36;76894.47;;;-141.64;92.38
47753;BME280;2038;51.728;6.674;2023-12-20T12:30:05;76892.50;;;-141.64;91.72
47753;BME280;2038;51.728;6.674;2023-12-20T12:32:36;76882.75;;;-141.64;91.82
47753;BME280;2038;51.728;6.674;2023-12-20T12:35:05;76878.84;;;-141.64;91.48
47753;BME280;2038;51.728;6.674;2023-12-20T12:37:35;76869.09;;;-141.64;90.94
47753;BME280;2038;51.728;6.674;2023-12-20T12:40:10;76876.91;;;-141.64;90.49
47753;BME280;2038;51.728;6.674;2023-12-20T12:42:38;76882.75;;;-141.64;91.67
47753;BME280;2038;51.728;6.674;2023-12-20T12:45:05;76867.13;;;-141.64;91.81
47753;BME280;2038;51.728;6.674;2023-12-20T12:47:32;76865.19;;;-141.64;91.12
47753;BME280;2038;51.728;6.674;2023-12-20T12:49:59;76884.69;;;-141.64;90.98
47753;BME280;2038;51.728;6.674;2023-12-20T12:52:26;76878.84;;;-141.64;91.40
47753;BME280;2038;51.728;6.674;2023-12-20T12:54:53;76876.91;;;-141.64;91.06